createdAt,value
2023-09-28T00:00:36.359Z,70.65
2023-09-28T00:03:32.737Z,70.93
2023-09-28T00:06:11.115Z,71.17
2023-09-28T00:08:47.294Z,70.85
2023-09-28T00:11:23.707Z,71.05
2023-09-28T00:13:59.945Z,71.02
2023-09-28T00:16:28.553Z,71.32
2023-09-28T00:18:57.043Z,71.24
2023-09-28T00:21:33.006Z,71.25
2023-09-28T00:24:10.528Z,71.51
2023-09-28T00:26:48.022Z,71.53
2023-09-28T00:29:24.256Z,72.04
2023-09-28T00:32:00.543Z,72.09
2023-09-28T00:34:36.627Z,71.70
2023-09-28T00:37:04.819Z,71.93
2023-09-28T00:39:34.175Z,71.67
2023-09-28T00:42:12.693Z,71.90
2023-09-28T00:44:49.239Z,72.01
2023-09-28T00:47:26.260Z,72.27
2023-09-28T00:50:04.759Z,72.38
2023-09-28T00:52:43.421Z,71.83
2023-09-28T00:55:22.175Z,72.17
2023-09-28T00:58:02.294Z,72.15
2023-09-28T01:00:41.234Z,72.50
2023-09-28T01:05:54.283Z,72.25
2023-09-28T01:08:30.921Z,72.55
2023-09-28T01:10:59.282Z,72.49
2023-09-28T01:13:34.817Z,72.76
2023-09-28T01:16:12.209Z,73.73
2023-09-28T01:18:48.120Z,73.44
2023-09-28T01:21:24.112Z,73.23
2023-09-28T01:24:00.050Z,73.38
2023-09-28T01:26:35.912Z,73.43
2023-09-28T01:29:12.794Z,73.36
2023-09-28T01:31:49.288Z,73.41
2023-09-28T01:34:17.730Z,73.17
2023-09-28T01:36:53.458Z,73.19
2023-09-28T01:39:30.186Z,73.00
2023-09-28T01:42:06.461Z,72.97
2023-09-28T01:44:42.904Z,73.05
2023-09-28T01:47:14.707Z,72.93
2023-09-28T01:49:50.979Z,72.81
2023-09-28T01:52:19.360Z,72.72
2023-09-28T01:54:55.237Z,72.77
2023-09-28T01:57:33.978Z,72.57
2023-09-28T02:00:28.245Z,72.55
2023-09-28T02:02:57.220Z,72.57
2023-09-28T02:05:35.789Z,72.88
2023-09-28T02:08:13.171Z,73.06
2023-09-28T02:10:49.393Z,72.93
2023-09-28T02:13:25.554Z,72.98
2023-09-28T02:16:01.870Z,73.08
2023-09-28T02:18:37.757Z,72.89
2023-09-28T02:21:18.396Z,72.97
2023-09-28T02:23:55.088Z,73.14
2023-09-28T02:26:31.569Z,73.27
2023-09-28T02:28:59.847Z,72.97
2023-09-28T02:31:36.738Z,72.90
2023-09-28T02:34:12.871Z,73.06
2023-09-28T02:36:49.114Z,72.92
2023-09-28T02:39:25.675Z,72.91
2023-09-28T02:42:01.090Z,73.00
2023-09-28T02:44:37.157Z,73.22
2023-09-28T02:47:12.655Z,72.98
2023-09-28T02:49:40.896Z,72.98
2023-09-28T02:52:17.241Z,73.55
2023-09-28T02:54:53.598Z,73.23
2023-09-28T02:57:29.924Z,73.53
2023-09-28T03:00:30.999Z,73.48
2023-09-28T03:03:11.956Z,73.67
2023-09-28T03:05:40.381Z,73.36
2023-09-28T03:08:17.785Z,73.63
2023-09-28T03:10:54.112Z,73.93
2023-09-28T03:13:30.121Z,73.96
2023-09-28T03:16:07.803Z,73.84
2023-09-28T03:18:43.517Z,74.28
2023-09-28T03:21:19.104Z,73.92
2023-09-28T03:23:55.162Z,74.40
2023-09-28T03:26:24.084Z,74.52
2023-09-28T03:28:58.555Z,74.54
2023-09-28T03:31:27.955Z,74.88
2023-09-28T03:34:03.816Z,74.69
2023-09-28T03:36:39.762Z,74.56
2023-09-28T03:39:17.053Z,73.96
2023-09-28T03:41:52.875Z,74.26
2023-09-28T03:44:21.841Z,74.63
2023-09-28T03:46:57.544Z,74.29
2023-09-28T03:49:33.421Z,74.38
2023-09-28T03:52:10.675Z,74.32
2023-09-28T03:54:46.598Z,74.39
2023-09-28T03:57:22.459Z,74.52
2023-09-28T03:59:58.324Z,74.61
2023-09-28T04:02:35.129Z,75.03
2023-09-28T04:05:03.629Z,74.63
2023-09-28T04:07:39.717Z,74.94
2023-09-28T04:10:17.173Z,75.36
2023-09-28T04:12:54.513Z,74.88
2023-09-28T04:15:31.449Z,74.90
2023-09-28T04:18:10.162Z,75.28
2023-09-28T04:20:47.009Z,75.17
2023-09-28T04:23:23.179Z,75.27
2023-09-28T04:25:59.075Z,75.17
2023-09-28T04:28:35.199Z,75.13
2023-09-28T04:31:03.538Z,75.00
2023-09-28T04:33:39.725Z,75.14
2023-09-28T04:36:17.308Z,75.02
2023-09-28T04:38:53.476Z,74.97
2023-09-28T04:41:30.019Z,75.10
2023-09-28T04:44:07.434Z,75.20
2023-09-28T04:46:43.884Z,75.04
2023-09-28T04:49:24.726Z,75.31
2023-09-28T04:52:00.035Z,75.22
2023-09-28T04:54:37.939Z,75.42
2023-09-28T04:57:14.721Z,75.70
2023-09-28T04:59:43.637Z,75.38
2023-09-28T05:02:21.084Z,75.60
2023-09-28T05:04:57.079Z,75.46
2023-09-28T05:07:32.602Z,75.39
2023-09-28T05:10:09.242Z,75.20
2023-09-28T05:12:44.809Z,75.36
2023-09-28T05:15:21.342Z,75.32
2023-09-28T05:17:57.423Z,74.93
2023-09-28T05:20:26.618Z,75.27
2023-09-28T05:23:02.487Z,75.00
2023-09-28T05:25:38.687Z,75.51
2023-09-28T05:28:15.391Z,75.24
2023-09-28T05:30:51.411Z,75.94
2023-09-28T05:33:27.880Z,75.34
2023-09-28T05:36:03.856Z,75.01
2023-09-28T05:38:39.529Z,75.15
2023-09-28T05:41:15.878Z,74.77
2023-09-28T05:43:44.436Z,73.98
2023-09-28T05:46:20.149Z,73.24
2023-09-28T05:48:55.768Z,71.87
2023-09-28T05:51:31.732Z,70.28
2023-09-28T05:54:06.257Z,67.83
2023-09-28T05:56:42.300Z,65.57
2023-09-28T05:59:18.594Z,65.32
2023-09-28T06:01:47.084Z,64.56
2023-09-28T06:04:23.692Z,63.45
2023-09-28T06:07:01.084Z,63.00
2023-09-28T06:09:36.768Z,61.33
2023-09-28T06:12:13.110Z,59.75
2023-09-28T06:14:49.382Z,57.96
2023-09-28T06:17:25.459Z,57.69
2023-09-28T06:20:01.226Z,56.41
2023-09-28T06:22:36.946Z,57.77
2023-09-28T06:25:07.852Z,56.78
2023-09-28T06:27:43.470Z,56.56
2023-09-28T06:30:19.588Z,55.64
2023-09-28T06:32:55.329Z,54.28
2023-09-28T06:35:26.970Z,53.90
2023-09-28T06:38:02.804Z,54.04
2023-09-28T06:40:40.047Z,53.28
2023-09-28T06:43:08.369Z,52.66
2023-09-28T06:45:44.026Z,51.95
2023-09-28T06:48:20.796Z,52.00
2023-09-28T06:50:59.608Z,51.06
2023-09-28T06:53:35.955Z,50.23
2023-09-28T06:56:14.147Z,49.17
2023-09-28T06:58:51.561Z,48.98
2023-09-28T07:01:27.805Z,49.12
2023-09-28T07:04:03.340Z,47.98
2023-09-28T07:06:39.388Z,48.23
2023-09-28T07:09:07.930Z,47.16
2023-09-28T07:11:43.431Z,46.17
2023-09-28T07:14:19.379Z,46.56
2023-09-28T07:16:54.684Z,43.75
2023-09-28T07:19:30.045Z,43.30
2023-09-28T07:22:06.144Z,43.52
2023-09-28T07:24:42.103Z,43.24
2023-09-28T07:27:18.810Z,42.69
2023-09-28T07:29:47.550Z,43.25
2023-09-28T07:32:24.324Z,41.81
2023-09-28T07:34:59.792Z,41.29
2023-09-28T07:37:35.738Z,40.84
2023-09-28T07:40:13.901Z,39.94
2023-09-28T07:42:50.480Z,40.61
2023-09-28T07:45:26.180Z,41.05
2023-09-28T07:48:02.898Z,40.15
2023-09-28T07:50:31.594Z,40.59
2023-09-28T07:53:06.743Z,39.41
2023-09-28T07:55:42.676Z,38.53
2023-09-28T07:58:26.038Z,38.48
2023-09-28T08:01:02.542Z,37.94
2023-09-28T08:03:38.357Z,38.38
2023-09-28T08:06:28.779Z,37.69
2023-09-28T08:09:06.365Z,36.84
2023-09-28T08:11:42.409Z,37.20
2023-09-28T08:14:19.104Z,36.56
2023-09-28T08:16:55.599Z,37.55
2023-09-28T08:19:32.073Z,38.09
2023-09-28T08:22:11.569Z,37.45
2023-09-28T08:24:47.950Z,37.37
2023-09-28T08:27:25.552Z,37.32
2023-09-28T08:29:54.941Z,37.23
2023-09-28T08:32:28.545Z,37.56
2023-09-28T08:35:05.119Z,37.28
2023-09-28T08:37:42.031Z,36.30
2023-09-28T08:40:20.832Z,35.92
2023-09-28T08:43:01.935Z,35.54
2023-09-28T08:45:41.106Z,35.65
2023-09-28T08:48:19.060Z,36.86
2023-09-28T08:51:02.046Z,36.14
2023-09-28T08:53:39.396Z,36.18
2023-09-28T08:56:15.740Z,35.44
2023-09-28T08:58:51.900Z,36.31
2023-09-28T09:01:29.705Z,35.53
2023-09-28T09:04:06.530Z,35.88
2023-09-28T09:06:47.848Z,36.20
2023-09-28T09:09:25.501Z,35.00
2023-09-28T09:11:54.288Z,34.46
2023-09-28T09:14:29.781Z,34.99
2023-09-28T09:17:07.483Z,35.48
2023-09-28T09:19:45.893Z,34.72
2023-09-28T09:22:34.999Z,34.70
2023-09-28T09:25:13.250Z,34.18
2023-09-28T09:27:51.023Z,34.06
2023-09-28T09:30:29.530Z,34.41
2023-09-28T09:33:10.070Z,34.07
2023-09-28T09:35:45.048Z,34.54
2023-09-28T09:38:25.875Z,34.90
2023-09-28T09:41:09.399Z,34.50
2023-09-28T09:43:47.709Z,34.69
2023-09-28T09:46:24.202Z,35.09
2023-09-28T09:49:00.689Z,35.28
2023-09-28T09:51:38.251Z,35.07
2023-09-28T09:54:15.082Z,35.27
2023-09-28T09:56:51.625Z,34.63
2023-09-28T09:59:29.994Z,34.03
2023-09-28T10:02:00.117Z,33.66
2023-09-28T10:04:32.907Z,34.13
2023-09-28T10:07:13.493Z,34.28
2023-09-28T10:09:49.705Z,34.55
2023-09-28T10:12:29.164Z,34.07
2023-09-28T10:15:06.227Z,33.95
2023-09-28T10:17:42.691Z,33.35
2023-09-28T10:20:19.322Z,33.08
2023-09-28T10:22:57.253Z,33.34
2023-09-28T10:25:33.309Z,33.36
2023-09-28T10:28:10.212Z,33.26
2023-09-28T10:30:46.129Z,33.34
2023-09-28T10:33:17.571Z,33.08
2023-09-28T10:36:11.815Z,33.29
2023-09-28T10:39:08.555Z,32.98
2023-09-28T10:41:50.525Z,33.16
2023-09-28T10:44:29.515Z,33.57
2023-09-28T10:47:06.342Z,33.74
2023-09-28T10:49:43.468Z,34.15
2023-09-28T10:52:20.074Z,34.83
2023-09-28T10:54:56.606Z,34.68
2023-09-28T10:57:35.911Z,35.52
2023-09-28T11:00:13.284Z,35.78
2023-09-28T11:02:53.238Z,36.15
2023-09-28T11:05:30.217Z,36.51
2023-09-28T11:08:05.023Z,36.35
2023-09-28T11:10:33.858Z,36.31
2023-09-28T11:13:12.319Z,36.38
2023-09-28T11:15:50.155Z,36.51
2023-09-28T11:18:27.943Z,36.65
2023-09-28T11:21:04.427Z,37.02
2023-09-28T11:23:40.977Z,36.99
2023-09-28T11:26:17.086Z,37.21
2023-09-28T11:28:59.521Z,37.03
2023-09-28T11:31:38.059Z,36.98
2023-09-28T11:34:15.075Z,36.97
2023-09-28T11:36:50.705Z,36.73
2023-09-28T11:39:19.740Z,36.13
2023-09-28T11:41:58.946Z,35.97
2023-09-28T11:44:34.289Z,36.58
2023-09-28T11:47:12.213Z,36.71
2023-09-28T11:49:53.102Z,36.39
2023-09-28T11:52:31.345Z,36.05
2023-09-28T11:55:10.241Z,35.46
2023-09-28T11:57:46.523Z,35.35
2023-09-28T12:00:22.682Z,33.74
2023-09-28T12:02:59.447Z,33.68
2023-09-28T12:05:34.918Z,34.08
2023-09-28T12:08:11.819Z,33.84
2023-09-28T12:10:40.791Z,34.11
2023-09-28T12:13:15.070Z,34.45
2023-09-28T12:15:49.881Z,34.19
2023-09-28T12:18:26.095Z,33.75
2023-09-28T12:21:03.361Z,34.27
2023-09-28T12:23:38.946Z,33.78
2023-09-28T12:26:15.062Z,33.57
2023-09-28T12:28:50.341Z,33.92
2023-09-28T12:31:19.292Z,32.49
2023-09-28T12:33:55.768Z,33.23
2023-09-28T12:36:32.037Z,33.01
2023-09-28T12:39:11.233Z,33.39
2023-09-28T12:41:48.257Z,33.21
2023-09-28T12:44:29.808Z,34.05
2023-09-28T12:47:06.901Z,34.12
2023-09-28T12:49:42.219Z,33.98
2023-09-28T12:52:18.067Z,33.88
2023-09-28T12:54:53.637Z,33.28
2023-09-28T12:57:29.225Z,34.08
2023-09-28T12:59:58.300Z,34.11
2023-09-28T13:02:34.962Z,34.24
2023-09-28T13:05:15.998Z,34.38
2023-09-28T13:07:52.117Z,34.85
2023-09-28T13:10:29.996Z,35.16
2023-09-28T13:13:09.413Z,35.31
2023-09-28T13:15:47.713Z,35.24
2023-09-28T13:18:24.517Z,35.30
2023-09-28T13:20:59.342Z,35.41
2023-09-28T13:23:35.574Z,35.85
2023-09-28T13:26:05.775Z,35.88
2023-09-28T13:28:38.194Z,36.18
2023-09-28T13:31:15.069Z,36.37
2023-09-28T13:33:52.463Z,36.32
2023-09-28T13:36:30.285Z,36.37
2023-09-28T13:39:06.258Z,36.54
2023-09-28T13:41:43.114Z,36.59
2023-09-28T13:44:18.970Z,36.23
2023-09-28T13:46:55.184Z,36.51
2023-09-28T13:49:31.861Z,36.55
2023-09-28T13:52:00.922Z,36.84
2023-09-28T13:54:36.927Z,36.92
2023-09-28T13:57:12.268Z,37.33
2023-09-28T13:59:50.335Z,37.23
2023-09-28T14:02:21.439Z,37.68
2023-09-28T14:04:56.804Z,37.67
2023-09-28T14:07:32.279Z,37.96
2023-09-28T14:10:00.897Z,38.07
2023-09-28T14:12:36.260Z,38.27
2023-09-28T14:15:12.661Z,38.24
2023-09-28T14:17:48.634Z,38.30
2023-09-28T14:20:25.054Z,38.53
2023-09-28T14:23:01.256Z,38.73
2023-09-28T14:25:36.503Z,39.00
2023-09-28T14:28:05.603Z,38.72
2023-09-28T14:30:39.775Z,38.86
2023-09-28T14:33:15.113Z,38.72
2023-09-28T14:35:52.987Z,38.76
2023-09-28T14:38:28.970Z,38.79
2023-09-28T14:41:04.935Z,38.77
2023-09-28T14:43:38.529Z,38.57
2023-09-28T14:46:14.585Z,38.45
2023-09-28T14:48:43.591Z,38.66
2023-09-28T14:51:19.664Z,38.77
2023-09-28T14:53:55.986Z,39.21
2023-09-28T14:56:32.166Z,39.38
2023-09-28T14:59:10.327Z,39.86
2023-09-28T15:01:47.213Z,39.95
2023-09-28T15:04:23.490Z,39.95
2023-09-28T15:06:59.758Z,40.30
2023-09-28T15:09:36.047Z,40.65
2023-09-28T15:12:05.223Z,40.64
2023-09-28T15:14:40.797Z,41.37
2023-09-28T15:17:16.728Z,41.34
2023-09-28T15:19:52.676Z,41.74
2023-09-28T15:22:28.920Z,41.91
2023-09-28T15:25:04.897Z,41.94
2023-09-28T15:27:42.599Z,42.13
2023-09-28T15:30:19.547Z,41.86
2023-09-28T15:32:56.036Z,42.46
2023-09-28T15:35:25.570Z,42.57
2023-09-28T15:38:01.697Z,43.19
2023-09-28T15:40:41.685Z,43.24
2023-09-28T15:43:18.281Z,43.52
2023-09-28T15:45:54.158Z,43.82
2023-09-28T15:48:29.658Z,44.08
2023-09-28T15:51:05.655Z,44.02
2023-09-28T15:53:41.110Z,44.27
2023-09-28T15:56:17.088Z,44.34
2023-09-28T15:58:45.952Z,44.63
2023-09-28T16:01:21.540Z,44.80
2023-09-28T16:03:57.861Z,45.06
2023-09-28T16:06:34.337Z,45.13
2023-09-28T16:09:11.685Z,45.64
2023-09-28T16:11:47.558Z,45.90
2023-09-28T16:14:23.176Z,46.07
2023-09-28T16:16:59.058Z,46.31
2023-09-28T16:19:34.698Z,46.15
2023-09-28T16:22:03.734Z,46.77
2023-09-28T16:24:32.793Z,46.95
2023-09-28T16:27:10.764Z,47.15
2023-09-28T16:29:46.065Z,47.13
2023-09-28T16:32:22.321Z,47.54
2023-09-28T16:34:58.071Z,47.68
2023-09-28T16:37:26.797Z,48.28
2023-09-28T16:40:02.665Z,48.43
2023-09-28T16:42:38.357Z,48.68
2023-09-28T16:45:14.460Z,48.92
2023-09-28T16:47:50.102Z,49.00
2023-09-28T16:50:25.792Z,49.18
2023-09-28T16:53:02.263Z,49.63
2023-09-28T16:55:38.123Z,49.83
2023-09-28T16:58:07.024Z,49.99
2023-09-28T17:00:45.123Z,50.48
2023-09-28T17:03:23.180Z,51.04
2023-09-28T17:05:58.844Z,50.93
2023-09-28T17:08:40.451Z,51.39
2023-09-28T17:11:16.802Z,51.39
2023-09-28T17:13:53.204Z,51.54
2023-09-28T17:16:29.433Z,51.78
2023-09-28T17:19:06.057Z,52.02
2023-09-28T17:21:44.248Z,52.10
2023-09-28T17:24:20.814Z,52.22
2023-09-28T17:26:49.652Z,52.57
2023-09-28T17:29:26.151Z,52.66
2023-09-28T17:31:58.392Z,52.77
2023-09-28T17:34:35.150Z,53.16
2023-09-28T17:37:13.898Z,53.19
2023-09-28T17:39:53.011Z,53.66
2023-09-28T17:42:29.697Z,53.56
2023-09-28T17:45:08.848Z,54.02
2023-09-28T17:47:53.968Z,54.45
2023-09-28T17:50:30.421Z,54.39
2023-09-28T17:53:07.242Z,54.82
2023-09-28T17:55:44.424Z,54.93
2023-09-28T17:58:22.656Z,55.34
2023-09-28T18:00:58.908Z,55.17
2023-09-28T18:03:27.682Z,55.54
2023-09-28T18:06:04.901Z,55.53
2023-09-28T18:08:41.356Z,55.94
2023-09-28T18:11:21.389Z,55.87
2023-09-28T18:13:58.240Z,56.02
2023-09-28T18:16:37.498Z,56.38
2023-09-28T18:19:14.223Z,56.60
2023-09-28T18:21:50.848Z,56.67
2023-09-28T18:24:26.932Z,57.17
2023-09-28T18:27:04.372Z,57.07
2023-09-28T18:29:41.343Z,57.17
2023-09-28T18:32:10.431Z,57.41
2023-09-28T18:34:46.979Z,57.47
2023-09-28T18:37:23.465Z,57.80
2023-09-28T18:40:00.491Z,57.97
2023-09-28T18:42:37.132Z,58.10
2023-09-28T18:45:14.057Z,58.22
2023-09-28T18:47:50.956Z,58.41
2023-09-28T18:50:27.727Z,58.81
2023-09-28T18:53:04.783Z,58.68
2023-09-28T18:55:33.149Z,59.04
2023-09-28T18:58:07.732Z,59.36
2023-09-28T19:00:47.056Z,59.41
2023-09-28T19:03:24.614Z,59.61
2023-09-28T19:06:03.823Z,59.86
2023-09-28T19:08:40.728Z,59.81
2023-09-28T19:11:18.233Z,59.75
2023-09-28T19:13:55.146Z,59.80
2023-09-28T19:16:32.617Z,59.63
2023-09-28T19:19:11.091Z,59.79
2023-09-28T19:21:47.656Z,59.82
2023-09-28T19:24:24.528Z,60.15
2023-09-28T19:26:53.276Z,60.47
2023-09-28T19:29:30.835Z,60.30
2023-09-28T19:32:09.550Z,60.71
2023-09-28T19:34:46.233Z,60.84
2023-09-28T19:37:22.669Z,60.87
2023-09-28T19:39:59.533Z,61.23
2023-09-28T19:42:35.898Z,61.44
2023-09-28T19:45:14.212Z,61.18
2023-09-28T19:47:51.527Z,61.85
2023-09-28T19:50:28.410Z,61.58
2023-09-28T19:53:04.916Z,61.73
2023-09-28T19:55:34.551Z,62.07
2023-09-28T19:58:09.651Z,62.25
2023-09-28T20:00:49.073Z,62.46
2023-09-28T20:03:25.899Z,62.61
2023-09-28T20:06:03.637Z,62.78
2023-09-28T20:08:40.569Z,62.81
2023-09-28T20:11:17.661Z,62.71
2023-09-28T20:13:55.595Z,62.57
2023-09-28T20:16:33.320Z,63.10
2023-09-28T20:19:11.206Z,63.20
2023-09-28T20:21:47.502Z,63.30
2023-09-28T20:24:25.081Z,63.43
2023-09-28T20:26:54.399Z,64.01
2023-09-28T20:29:30.488Z,64.51
2023-09-28T20:32:08.180Z,64.62
2023-09-28T20:34:44.830Z,65.24
2023-09-28T20:37:21.680Z,65.40
2023-09-28T20:39:58.878Z,64.61
2023-09-28T20:42:34.958Z,64.91
2023-09-28T20:45:12.899Z,64.97
2023-09-28T20:47:49.161Z,65.38
2023-09-28T20:50:26.950Z,65.03
2023-09-28T20:52:57.020Z,64.75
2023-09-28T20:55:31.294Z,65.04
2023-09-28T20:58:09.429Z,64.92
2023-09-28T21:00:43.779Z,65.22
2023-09-28T21:03:20.523Z,65.66
2023-09-28T21:05:58.377Z,65.79
2023-09-28T21:08:35.643Z,65.87
2023-09-28T21:11:22.757Z,66.06
2023-09-28T21:14:00.976Z,66.54
2023-09-28T21:16:37.553Z,66.72
2023-09-28T21:19:14.550Z,66.94
2023-09-28T21:21:51.174Z,66.96
2023-09-28T21:24:27.910Z,66.76
2023-09-28T21:26:56.389Z,67.12
2023-09-28T21:29:32.419Z,66.78
2023-09-28T21:32:04.954Z,66.98
2023-09-28T21:34:41.471Z,67.39
2023-09-28T21:37:18.234Z,67.44
2023-09-28T21:39:54.556Z,67.76
2023-09-28T21:42:31.064Z,67.65
2023-09-28T21:45:12.523Z,68.19
2023-09-28T21:47:49.649Z,68.13
2023-09-28T21:50:18.996Z,68.09
2023-09-28T21:52:53.188Z,68.28
2023-09-28T21:55:30.074Z,68.39
2023-09-28T21:58:06.807Z,68.34
2023-09-28T22:00:44.076Z,68.53
2023-09-28T22:03:21.157Z,68.72
2023-09-28T22:05:58.324Z,69.11
2023-09-28T22:08:35.459Z,69.63
2023-09-28T22:11:13.953Z,69.40
2023-09-28T22:13:50.847Z,69.47
2023-09-28T22:16:28.559Z,69.32
2023-09-28T22:18:57.044Z,70.20
2023-09-28T22:21:33.844Z,70.69
2023-09-28T22:24:14.941Z,71.24
2023-09-28T22:26:51.786Z,71.24
2023-09-28T22:29:28.740Z,71.91
2023-09-28T22:31:59.701Z,72.21
2023-09-28T22:34:37.044Z,72.21
2023-09-28T22:37:16.049Z,72.47
2023-09-28T22:39:52.615Z,72.67
2023-09-28T22:42:29.350Z,72.59
2023-09-28T22:45:07.507Z,72.28
2023-09-28T22:47:44.022Z,72.47
2023-09-28T22:50:12.063Z,73.05
2023-09-28T22:52:48.518Z,72.93
2023-09-28T22:55:24.966Z,73.26
2023-09-28T22:58:01.761Z,73.27
2023-09-28T23:00:38.753Z,73.61
2023-09-28T23:03:15.274Z,73.12
2023-09-28T23:05:52.198Z,73.17
2023-09-28T23:08:28.360Z,73.26
2023-09-28T23:11:05.644Z,73.45
2023-09-28T23:13:42.534Z,73.39
2023-09-28T23:16:10.765Z,73.68
2023-09-28T23:18:49.266Z,74.39
2023-09-28T23:21:26.504Z,74.39
2023-09-28T23:24:02.707Z,74.38
2023-09-28T23:26:39.094Z,74.96
2023-09-28T23:29:16.039Z,74.91
2023-09-28T23:31:45.603Z,74.65
2023-09-28T23:34:14.108Z,74.91
2023-09-28T23:36:50.271Z,75.83
2023-09-28T23:39:27.147Z,75.39
2023-09-28T23:42:03.505Z,75.19
2023-09-28T23:44:40.408Z,75.17
2023-09-28T23:47:17.106Z,75.19
2023-09-28T23:49:54.522Z,75.28
2023-09-28T23:52:31.401Z,75.40
2023-09-28T23:55:12.614Z,75.45
2023-09-28T23:57:50.553Z,75.48
